createdAt,value
2019-03-13T00:01:37.683Z,15.08
2019-03-13T00:06:46.534Z,16.31
2019-03-13T00:11:55.424Z,18.29
2019-03-13T00:17:04.246Z,14.83
2019-03-13T00:22:13.194Z,16.47
2019-03-13T00:27:21.958Z,19.57
2019-03-13T00:32:30.901Z,22.20
2019-03-13T00:37:39.732Z,18.64
2019-03-13T00:42:48.710Z,15.72
2019-03-13T00:47:57.527Z,17.73
2019-03-13T00:53:06.423Z,16.90
2019-03-13T00:58:15.278Z,26.29
2019-03-13T01:03:24.174Z,20.79
2019-03-13T01:08:33.079Z,27.79
2019-03-13T01:13:42.036Z,21.96
2019-03-13T01:18:50.898Z,19.86
2019-03-13T01:23:59.796Z,22.54
2019-03-13T01:29:08.619Z,19.69
2019-03-13T01:34:17.543Z,23.33
2019-03-13T01:39:26.365Z,21.88
2019-03-13T01:44:35.295Z,19.80
2019-03-13T01:49:44.145Z,19.63
2019-03-13T01:54:53.083Z,22.04
2019-03-13T02:00:01.969Z,19.73
2019-03-13T02:05:10.879Z,19.16
2019-03-13T02:10:19.722Z,18.42
2019-03-13T02:15:28.666Z,18.81
2019-03-13T02:20:37.535Z,22.24
2019-03-13T02:25:46.470Z,16.10
2019-03-13T02:30:55.288Z,17.46
2019-03-13T02:36:04.204Z,16.71
2019-03-13T02:41:13.080Z,18.41
2019-03-13T02:46:21.992Z,15.85
2019-03-13T02:51:30.843Z,19.06
2019-03-13T02:56:39.774Z,22.25
2019-03-13T03:01:48.757Z,18.62
2019-03-13T03:06:57.713Z,19.41
2019-03-13T03:12:06.530Z,20.85
2019-03-13T03:17:15.507Z,18.30
2019-03-13T03:22:24.382Z,16.51
2019-03-13T03:27:33.394Z,21.15
2019-03-13T03:32:42.246Z,20.06
2019-03-13T03:37:51.169Z,16.64
2019-03-13T03:43:00.032Z,18.49
2019-03-13T03:48:08.943Z,18.63
2019-03-13T03:53:17.795Z,17.85
2019-03-13T03:58:29.515Z,19.83
2019-03-13T04:03:35.096Z,20.61
2019-03-13T04:08:44.089Z,21.84
2019-03-13T04:13:53.023Z,23.26
2019-03-13T04:19:01.904Z,20.28
2019-03-13T04:24:10.734Z,22.43
2019-03-13T04:29:19.664Z,22.12
2019-03-13T04:34:28.538Z,22.69
2019-03-13T04:39:37.447Z,23.84
2019-03-13T04:44:46.259Z,20.75
2019-03-13T04:49:55.190Z,25.90
2019-03-13T04:55:04.067Z,23.73
2019-03-13T05:00:13.033Z,20.85
2019-03-13T05:05:21.846Z,22.96
2019-03-13T05:10:30.727Z,19.48
2019-03-13T05:15:39.582Z,20.32
2019-03-13T05:20:48.507Z,20.41
2019-03-13T05:25:57.370Z,20.99
2019-03-13T05:31:06.282Z,19.88
2019-03-13T05:36:16.721Z,19.34
2019-03-13T05:41:23.596Z,19.26
2019-03-13T05:46:32.438Z,21.54
2019-03-13T05:51:41.366Z,17.75
2019-03-13T05:56:50.185Z,15.02
2019-03-13T06:01:59.142Z,19.37
2019-03-13T06:07:08.011Z,19.74
2019-03-13T06:12:16.963Z,18.48
2019-03-13T06:17:25.825Z,18.04
2019-03-13T06:22:34.766Z,15.48
2019-03-13T06:27:46.151Z,21.20
2019-03-13T06:32:52.242Z,19.05
2019-03-13T06:38:01.107Z,24.25
2019-03-13T06:43:12.795Z,21.31
2019-03-13T06:48:12.003Z,17.80
2019-03-13T06:53:20.893Z,20.49
2019-03-13T06:58:29.734Z,20.03
2019-03-13T07:03:38.671Z,18.79
2019-03-13T07:08:47.536Z,20.65
2019-03-13T07:13:58.953Z,18.87
2019-03-13T07:18:57.754Z,20.98
2019-03-13T07:24:06.683Z,21.26
2019-03-13T07:29:15.590Z,23.03
2019-03-13T07:34:24.571Z,26.35
2019-03-13T07:39:33.510Z,19.43
2019-03-13T07:44:42.433Z,19.18
2019-03-13T07:49:51.267Z,21.28
2019-03-13T07:55:00.415Z,19.22
2019-03-13T08:00:09.239Z,20.90
2019-03-13T08:05:18.167Z,23.06
2019-03-13T08:10:27.138Z,21.27
2019-03-13T08:15:36.058Z,22.64
2019-03-13T08:20:44.926Z,19.26
2019-03-13T08:25:53.833Z,20.53
2019-03-13T08:31:02.763Z,21.89
2019-03-13T08:36:12.159Z,19.09
2019-03-13T08:41:20.984Z,20.27
2019-03-13T08:46:29.915Z,19.90
2019-03-13T08:51:38.749Z,18.72
2019-03-13T08:56:47.652Z,17.67
2019-03-13T09:01:56.589Z,21.61
2019-03-13T09:07:05.510Z,18.30
2019-03-13T09:12:14.415Z,22.76
2019-03-13T09:17:23.604Z,18.23
2019-03-13T09:22:32.500Z,19.64
2019-03-13T09:27:41.447Z,17.89
2019-03-13T09:32:50.599Z,24.46
2019-03-13T09:37:58.054Z,18.00
2019-03-13T09:43:07.122Z,17.06
2019-03-13T09:48:16.224Z,17.58
2019-03-13T09:53:25.381Z,15.61
2019-03-13T09:58:34.328Z,15.86
2019-03-13T10:03:43.219Z,15.97
2019-03-13T10:08:52.146Z,19.91
2019-03-13T10:14:02.142Z,17.66
2019-03-13T10:19:10.711Z,16.46
2019-03-13T10:24:19.597Z,13.87
2019-03-13T10:25:34.247Z,14.75
2019-03-13T10:30:43.194Z,14.14
2019-03-13T10:35:52.022Z,17.31
2019-03-13T10:41:01.440Z,17.74
2019-03-13T10:46:10.315Z,13.11
2019-03-13T10:51:19.271Z,14.13
2019-03-13T10:56:28.141Z,13.41
2019-03-13T11:01:37.162Z,12.98
2019-03-13T11:06:54.893Z,11.86
2019-03-13T11:11:54.597Z,11.68
2019-03-13T11:17:03.599Z,12.91
2019-03-13T11:22:12.578Z,11.40
2019-03-13T11:27:21.431Z,12.52
2019-03-13T11:32:30.436Z,13.94
2019-03-13T11:37:39.367Z,14.56
2019-03-13T11:42:49.415Z,10.38
2019-03-13T11:47:48.216Z,12.36
2019-03-13T11:52:57.226Z,15.38
2019-03-13T11:58:06.171Z,13.50
2019-03-13T12:03:15.154Z,14.08
2019-03-13T12:08:24.045Z,15.96
2019-03-13T12:13:33.022Z,13.02
2019-03-13T12:18:41.890Z,13.08
2019-03-13T12:23:50.894Z,14.89
2019-03-13T12:29:00.740Z,13.93
2019-03-13T12:34:09.700Z,16.03
2019-03-13T12:39:18.723Z,14.25
2019-03-13T12:44:27.735Z,21.37
2019-03-13T12:49:36.675Z,15.57
2019-03-13T12:54:45.725Z,17.47
2019-03-13T12:59:54.593Z,20.16
2019-03-13T13:05:03.523Z,14.50
2019-03-13T13:10:12.396Z,18.38
2019-03-13T13:15:21.407Z,17.36
2019-03-13T13:20:30.554Z,18.30
2019-03-13T13:25:42.769Z,16.45
2019-03-13T13:30:41.532Z,17.87
2019-03-13T13:35:50.497Z,14.05
2019-03-13T13:40:59.404Z,16.84
2019-03-13T13:46:08.352Z,15.58
2019-03-13T13:51:17.267Z,17.94
2019-03-13T13:56:26.686Z,16.35
2019-03-13T14:01:35.603Z,15.66
2019-03-13T14:06:44.668Z,17.90
2019-03-13T14:11:53.617Z,16.88
2019-03-13T14:17:02.619Z,15.67
2019-03-13T14:22:11.527Z,10.81
2019-03-13T14:27:20.498Z,8.90
2019-03-13T14:32:29.431Z,8.64
2019-03-13T14:37:38.407Z,10.99
2019-03-13T14:42:47.251Z,9.94
2019-03-13T14:47:56.304Z,9.73
2019-03-13T14:53:05.206Z,16.04
2019-03-13T14:58:14.219Z,19.39
2019-03-13T15:03:23.124Z,18.34
2019-03-13T15:08:32.108Z,16.67
2019-03-13T15:13:41.026Z,17.00
2019-03-13T15:18:49.987Z,14.11
2019-03-13T15:23:58.847Z,17.77
2019-03-13T15:29:07.836Z,17.44
2019-03-13T15:34:16.825Z,16.79
2019-03-13T15:39:25.753Z,14.28
2019-03-13T15:44:34.630Z,14.61
2019-03-13T15:49:43.591Z,14.97
2019-03-13T15:54:52.515Z,11.56
2019-03-13T16:00:01.638Z,12.59
2019-03-13T16:05:10.547Z,14.20
2019-03-13T16:10:18.144Z,14.69
2019-03-13T16:15:27.196Z,13.69
2019-03-13T16:20:36.196Z,11.77
2019-03-13T16:25:45.192Z,13.68
2019-03-13T16:30:54.155Z,16.00
2019-03-13T16:36:05.556Z,10.54
2019-03-13T16:41:04.470Z,10.65
2019-03-13T16:46:13.447Z,15.02
2019-03-13T16:51:22.447Z,15.79
2019-03-13T16:56:31.566Z,17.68
2019-03-13T17:01:40.700Z,18.74
2019-03-13T17:06:49.632Z,17.15
2019-03-13T17:11:58.695Z,20.49
2019-03-13T17:17:07.587Z,24.36
2019-03-13T17:22:16.534Z,20.62
2019-03-13T17:27:25.535Z,20.44
2019-03-13T17:32:34.502Z,18.99
2019-03-13T17:37:43.494Z,16.19
2019-03-13T17:42:52.450Z,17.46
2019-03-13T17:48:03.628Z,38.76
2019-03-13T17:53:02.542Z,19.56
2019-03-13T17:58:14.571Z,30.67
2019-03-13T18:03:13.487Z,20.82
2019-03-13T18:08:22.360Z,36.43
2019-03-13T18:13:31.519Z,19.33
2019-03-13T18:18:40.395Z,20.58
2019-03-13T18:23:51.591Z,17.00
2019-03-13T18:28:50.471Z,16.84
2019-03-13T18:33:59.501Z,17.96
2019-03-13T18:39:08.462Z,17.80
2019-03-13T18:44:17.581Z,14.54
2019-03-13T18:49:26.582Z,11.30
2019-03-13T18:54:35.799Z,13.31
2019-03-13T18:59:43.284Z,10.11
2019-03-13T19:04:52.222Z,10.79
2019-03-13T19:10:01.217Z,11.80
2019-03-13T19:15:10.334Z,13.04
2019-03-13T19:20:19.323Z,14.33
2019-03-13T19:25:28.491Z,13.83
2019-03-13T19:30:38.003Z,15.31
2019-03-13T19:35:46.651Z,16.60
2019-03-13T19:40:55.799Z,18.22
2019-03-13T19:46:04.766Z,18.85
2019-03-13T19:51:13.672Z,14.88
2019-03-13T19:56:22.793Z,15.17
2019-03-13T20:01:31.639Z,22.56
2019-03-13T20:06:42.500Z,31.14
2019-03-13T20:11:49.027Z,35.35
2019-03-13T20:16:57.939Z,59.32
2019-03-13T20:22:06.842Z,64.89
2019-03-13T20:27:15.787Z,22.47
2019-03-13T20:32:24.787Z,22.41
2019-03-13T20:37:33.751Z,20.56
2019-03-13T20:42:42.713Z,16.04
2019-03-13T20:47:51.645Z,18.18
2019-03-13T20:53:00.491Z,13.87
2019-03-13T20:58:09.540Z,12.77
2019-03-13T21:03:18.503Z,14.04
2019-03-13T21:08:27.766Z,16.25
2019-03-13T21:13:36.776Z,16.27
2019-03-13T21:18:46.378Z,12.50
2019-03-13T21:23:55.421Z,13.28
2019-03-13T21:29:04.590Z,13.50
2019-03-13T21:34:13.470Z,14.06
2019-03-13T21:39:22.411Z,13.97
2019-03-13T21:44:31.272Z,14.07
2019-03-13T21:49:40.211Z,17.45
2019-03-13T21:54:51.981Z,14.37
2019-03-13T21:59:57.661Z,20.17
2019-03-13T22:05:06.666Z,17.13
2019-03-13T22:10:15.690Z,19.68
2019-03-13T22:15:24.626Z,19.72
2019-03-13T22:20:33.547Z,19.53
2019-03-13T22:25:42.407Z,17.15
2019-03-13T22:30:51.439Z,15.47
2019-03-13T22:36:00.383Z,15.34
2019-03-13T22:41:09.302Z,15.32
2019-03-13T22:46:18.183Z,17.37
2019-03-13T22:51:27.096Z,13.57
2019-03-13T22:56:36.031Z,14.93
2019-03-13T23:01:45.330Z,15.48
2019-03-13T23:06:54.423Z,16.86
2019-03-13T23:12:03.359Z,16.15
2019-03-13T23:17:12.274Z,14.36
2019-03-13T23:22:21.223Z,18.28
2019-03-13T23:27:30.083Z,14.14
2019-03-13T23:32:39.068Z,16.14
2019-03-13T23:37:47.941Z,15.29
2019-03-13T23:42:56.834Z,19.73
2019-03-13T23:48:05.680Z,18.01
2019-03-13T23:53:14.579Z,23.66
2019-03-13T23:58:23.418Z,33.89
